Time;durP1;ratioP1;P1;durP2;ratioP2;P2;SDS_P1;SDS_P2;PMS_P1;PMS_P2;Temp;Humidity;BMP_temperature;BMP_pressure;BME280_temperature;BME280_humidity;BME280_pressure;Samples;Min_cycle;Max_cycle;Signal;HPM_P1;HPM_P2
2022/12/24 00:00:54;;;;;;;72.45;24.30;;;;;;;4.85;100.00;100098.44;2070567;28;42769;-77
2022/12/24 00:01:56;;;;;;;60.55;22.90;;;;;;;4.85;100.00;100101.97;2062455;28;37250;-77
2022/12/24 00:03:00;;;;;;;71.35;23.77;;;;;;;4.84;100.00;100094.91;2063471;28;37249;-77
2022/12/24 00:04:02;;;;;;;63.30;23.90;;;;;;;4.86;100.00;100108.13;2071086;28;43599;-77
2022/12/24 00:05:05;;;;;;;69.75;24.33;;;;;;;4.84;100.00;100102.84;2071090;28;40690;-77
2022/12/24 00:06:14;;;;;;;65.47;23.88;;;;;;;4.83;100.00;100095.81;2071001;28;36057;-77
2022/12/24 00:07:16;;;;;;;54.13;21.75;;;;;;;4.82;100.00;100099.34;2071243;28;20043;-77
2022/12/24 00:08:18;;;;;;;66.50;23.13;;;;;;;4.82;100.00;100099.34;2070944;28;43529;-77
2022/12/24 00:09:19;;;;;;;61.47;23.05;;;;;;;4.84;100.00;100104.63;2070993;28;39752;-77
2022/12/24 00:10:21;;;;;;;56.25;21.83;;;;;;;4.86;100.00;100111.66;2071561;28;40694;-77
2022/12/24 00:11:23;;;;;;;61.55;22.30;;;;;;;4.86;100.00;100105.50;2071049;28;39386;-77
2022/12/24 00:12:24;;;;;;;65.80;22.63;;;;;;;4.84;100.00;100094.91;2071250;28;38622;-77
2022/12/24 00:13:27;;;;;;;59.60;22.45;;;;;;;4.84;100.00;100100.19;2071548;28;20038;-77
2022/12/24 00:14:29;;;;;;;57.90;21.92;;;;;;;4.85;100.00;100096.66;2070350;28;42311;-77
2022/12/24 00:15:30;;;;;;;64.18;22.25;;;;;;;4.84;100.00;100094.91;2070103;28;39343;-77
2022/12/24 00:16:35;;;;;;;52.30;21.60;;;;;;;4.85;100.00;100098.44;2071412;28;38265;-77
2022/12/24 00:17:37;;;;;;;54.47;20.95;;;;;;;4.84;100.00;100102.84;2071112;28;42892;-77
2022/12/24 00:18:38;;;;;;;50.67;20.70;;;;;;;4.83;100.00;100103.75;2076912;28;39883;-77
2022/12/24 00:19:46;;;;;;;63.33;22.05;;;;;;;4.84;100.00;100097.53;2079111;28;40503;-77
2022/12/24 00:20:48;;;;;;;67.82;22.02;;;;;;;4.85;100.00;100086.06;2079599;28;39973;-77
2022/12/24 00:21:50;;;;;;;59.38;21.88;;;;;;;4.84;100.00;100094.91;2079118;28;39284;-77
2022/12/24 00:22:51;;;;;;;53.92;21.48;;;;;;;4.85;100.00;100090.50;2079388;28;42454;-77
2022/12/24 00:23:53;;;;;;;60.28;21.20;;;;;;;4.84;100.00;100094.91;2079292;28;38867;-77
2022/12/24 00:24:55;;;;;;;54.78;20.10;;;;;;;4.85;100.00;100090.50;2080237;28;20046;-77
2022/12/24 00:25:59;;;;;;;55.13;21.02;;;;;;;4.84;100.00;100092.25;2070096;28;41529;-77
2022/12/24 00:27:02;;;;;;;58.63;21.00;;;;;;;4.86;100.00;100098.41;2071294;28;38698;-77
2022/12/24 00:28:04;;;;;;;58.15;21.42;;;;;;;4.85;100.00;100101.97;2069778;28;32443;-77
2022/12/24 00:29:10;;;;;;;60.28;20.63;;;;;;;4.85;100.00;100101.97;2072005;28;20046;-77
2022/12/24 00:30:12;;;;;;;59.58;21.48;;;;;;;4.84;100.00;100100.19;2070566;28;20054;-77
2022/12/24 00:31:17;;;;;;;59.13;22.55;;;;;;;4.85;100.00;100096.66;2071222;28;39536;-76
2022/12/24 00:32:18;;;;;;;52.17;20.15;;;;;;;4.84;100.00;100100.19;2079260;28;38570;-77
2022/12/24 00:33:21;;;;;;;50.95;19.67;;;;;;;4.84;100.00;100108.16;2079507;28;38823;-77
2022/12/24 00:34:25;;;;;;;58.95;20.92;;;;;;;4.84;100.00;100094.91;2070022;28;40976;-77
2022/12/24 00:35:28;;;;;;;65.47;20.40;;;;;;;4.86;100.00;100100.19;2071356;28;37346;-77
2022/12/24 00:36:30;;;;;;;51.63;20.20;;;;;;;4.84;100.00;100102.84;2079175;28;40019;-77
2022/12/24 00:37:31;;;;;;;61.92;20.80;;;;;;;4.85;100.00;100101.09;2079715;28;40524;-77
2022/12/24 00:38:33;;;;;;;61.63;21.80;;;;;;;4.86;100.00;100109.00;2079322;28;38269;-77
2022/12/24 00:39:35;;;;;;;52.80;19.88;;;;;;;4.85;100.00;100104.63;2079823;28;39226;-77
2022/12/24 00:40:36;;;;;;;53.67;19.83;;;;;;;4.86;100.00;100106.34;2079425;28;40273;-77
2022/12/24 00:41:40;;;;;;;53.33;20.13;;;;;;;4.85;100.00;100103.75;2080138;28;25568;-77
2022/12/24 00:42:43;;;;;;;52.95;20.38;;;;;;;4.87;100.00;100102.81;2078971;28;44022;-77
2022/12/24 00:43:44;;;;;;;59.08;20.63;;;;;;;4.87;100.00;100110.78;2079371;28;36317;-76
2022/12/24 00:44:46;;;;;;;54.35;19.23;;;;;;;4.87;100.00;100107.25;2078976;28;39377;-76
2022/12/24 00:45:48;;;;;;;49.30;19.08;;;;;;;4.87;100.00;100112.56;2080196;28;40137;-76
2022/12/24 00:46:51;;;;;;;53.22;19.85;;;;;;;4.87;100.00;100109.91;2070288;28;42563;-76
2022/12/24 00:47:52;;;;;;;57.95;19.50;;;;;;;4.87;100.00;100113.44;2070832;28;41002;-76
2022/12/24 00:48:54;;;;;;;52.60;19.45;;;;;;;4.86;100.00;100119.63;2079664;28;20034;-76
2022/12/24 00:49:56;;;;;;;57.13;20.13;;;;;;;4.86;100.00;100116.09;2079233;28;42429;-77
2022/12/24 00:50:58;;;;;;;49.92;19.50;;;;;;;4.86;100.00;100110.78;2079005;28;40781;-76
2022/12/24 00:52:01;;;;;;;48.42;19.17;;;;;;;4.85;100.00;100117.88;2079568;28;35323;-77
2022/12/24 00:53:03;;;;;;;52.80;18.92;;;;;;;4.87;100.00;100116.06;2079010;28;41443;-77
2022/12/24 00:54:08;;;;;;;52.30;18.92;;;;;;;4.86;100.00;100124.91;2079232;28;39523;-77
2022/12/24 00:55:10;;;;;;;46.65;18.77;;;;;;;4.88;100.00;100128.47;2079013;28;37682;-77
2022/12/24 00:56:11;;;;;;;50.08;19.40;;;;;;;4.87;100.00;100126.69;2079493;28;38198;-77
2022/12/24 00:57:13;;;;;;;51.58;18.10;;;;;;;4.88;100.00;100132.88;2080030;28;20867;-77
2022/12/24 00:58:15;;;;;;;47.65;17.48;;;;;;;4.88;100.00;100123.16;2079450;28;42629;-77
2022/12/24 00:59:16;;;;;;;44.40;18.63;;;;;;;4.87;100.00;100121.38;2079006;28;32788;-77
2022/12/24 01:00:18;;;;;;;51.78;17.80;;;;;;;4.88;100.00;100130.22;2080802;28;39329;-77
2022/12/24 01:01:21;;;;;;;50.08;18.75;;;;;;;4.89;100.00;100124.03;2080331;28;42755;-77
2022/12/24 01:02:26;;;;;;;51.70;20.25;;;;;;;4.89;100.00;100122.25;2073094;28;21000;-77
2022/12/24 01:03:36;;;;;;;46.83;18.75;;;;;;;4.89;100.00;100127.53;2072492;28;40932;-77
2022/12/24 01:05:58;;;;;;;46.72;18.63;;;;;;;4.88;100.00;100127.56;2081066;28;39246;-77
2022/12/24 01:07:00;;;;;;;47.00;17.20;;;;;;;4.88;100.00;100130.22;2080681;28;42464;-78
2022/12/24 01:08:02;;;;;;;44.42;17.52;;;;;;;4.88;100.00;100127.56;2080567;28;35565;-78
2022/12/24 01:09:09;;;;;;;44.42;16.95;;;;;;;4.88;100.00;100128.47;2081487;28;20038;-78
2022/12/24 01:10:14;;;;;;;49.63;17.83;;;;;;;4.89;100.00;100131.97;2081071;28;20054;-77
2022/12/24 01:11:16;;;;;;;53.63;18.63;;;;;;;4.88;100.00;100130.22;2081247;28;20999;-77
2022/12/24 01:12:18;;;;;;;44.38;18.70;;;;;;;4.89;100.00;100129.31;2080836;28;37946;-77
2022/12/24 01:13:19;;;;;;;44.45;17.95;;;;;;;4.87;100.00;100129.34;2080815;28;35503;-77
2022/12/24 01:14:21;;;;;;;45.80;18.98;;;;;;;4.88;100.00;100123.16;2080620;28;37281;-77
2022/12/24 01:15:23;;;;;;;46.80;19.33;;;;;;;4.88;100.00;100128.47;2080812;28;36769;-77
2022/12/24 01:16:25;;;;;;;45.38;18.23;;;;;;;4.89;100.00;100139.94;2072497;28;21317;-77
2022/12/24 01:17:26;;;;;;;47.05;18.13;;;;;;;4.89;100.00;100135.50;2071902;28;39892;-77
2022/12/24 01:18:28;;;;;;;39.25;17.83;;;;;;;4.88;100.00;100133.75;2081076;28;25585;-77
2022/12/24 01:19:30;;;;;;;47.20;18.20;;;;;;;4.89;100.00;100130.19;2081057;28;20914;-77
2022/12/24 01:20:32;;;;;;;49.13;19.38;;;;;;;4.88;100.00;100133.75;2076598;28;38778;-77
2022/12/24 01:21:33;;;;;;;48.42;18.42;;;;;;;4.88;100.00;100128.47;2072485;28;37118;-77
2022/12/24 01:22:35;;;;;;;46.75;18.38;;;;;;;4.89;100.00;100135.50;2072274;28;34558;-77
2022/12/24 01:23:37;;;;;;;43.72;17.90;;;;;;;4.87;100.00;100134.66;2072313;28;41363;-77
2022/12/24 01:24:42;;;;;;;47.53;17.60;;;;;;;4.89;100.00;100140.81;2073696;28;20815;-77
2022/12/24 01:25:44;;;;;;;37.78;17.77;;;;;;;4.90;100.00;100131.97;2071658;28;42979;-77
2022/12/24 01:26:45;;;;;;;42.72;17.58;;;;;;;4.89;100.00;100137.28;2071847;28;36738;-77
2022/12/24 01:27:47;;;;;;;41.10;17.70;;;;;;;4.88;100.00;100143.47;2072453;28;39717;-77
2022/12/24 01:28:49;;;;;;;40.88;17.52;;;;;;;4.88;100.00;100135.50;2072362;28;42325;-77
2022/12/24 01:29:50;;;;;;;48.65;19.00;;;;;;;4.89;100.00;100138.16;2073248;28;20045;-77
2022/12/24 01:30:52;;;;;;;45.20;18.42;;;;;;;4.88;100.00;100136.41;2071860;28;42372;-77
2022/12/24 01:31:54;;;;;;;46.47;18.60;;;;;;;4.88;100.00;100144.38;2072453;28;36225;-77
2022/12/24 01:32:55;;;;;;;39.85;17.08;;;;;;;4.89;100.00;100132.84;2072729;28;20042;-76
2022/12/24 01:33:57;;;;;;;36.10;16.63;;;;;;;4.88;100.00;100133.75;2071584;28;42347;-77
2022/12/24 01:34:59;;;;;;;44.63;17.55;;;;;;;4.89;100.00;100140.81;2072028;28;39904;-77
2022/12/24 01:36:02;;;;;;;41.70;18.30;;;;;;;4.89;100.00;100142.59;2072393;28;40252;-77
2022/12/24 01:37:04;;;;;;;44.92;17.95;;;;;;;4.89;100.00;100146.09;2071971;28;39828;-77
2022/12/24 01:38:06;;;;;;;45.13;18.35;;;;;;;4.89;100.00;100151.41;2072162;28;40063;-77
2022/12/24 01:39:08;;;;;;;46.60;17.73;;;;;;;4.89;100.00;100146.09;2071868;28;41597;-77
2022/12/24 01:44:34;;;;;;;46.83;17.88;;;;;;;4.89;100.00;100151.41;2072098;28;40409;-77
2022/12/24 01:45:47;;;;;;;42.97;17.15;;;;;;;4.90;100.00;100152.28;2071599;28;43651;-77
2022/12/24 01:46:52;;;;;;;41.03;16.67;;;;;;;4.90;100.00;100150.53;2071958;28;35862;-77
2022/12/24 01:47:54;;;;;;;48.70;17.20;;;;;;;4.90;100.00;100160.25;2072742;28;28349;-77
2022/12/24 01:49:03;;;;;;;47.35;18.33;;;;;;;4.90;100.00;100157.59;2071225;28;39060;-77
2022/12/24 01:50:17;;;;;;;45.00;17.77;;;;;;;4.90;100.00;100158.50;2071847;28;39499;-75
2022/12/24 01:51:53;;;;;;;44.03;17.88;;;;;;;4.92;100.00;100163.78;2064850;28;41483;-77
2022/12/24 01:52:57;;;;;;;49.83;17.98;;;;;;;4.91;100.00;100162.88;2069900;28;20042;-77
2022/12/24 01:54:07;;;;;;;46.33;17.00;;;;;;;4.92;100.00;100164.66;2071973;28;45142;-77
2022/12/24 01:55:14;;;;;;;43.80;18.08;;;;;;;4.91;100.00;100162.88;2072344;28;20827;-78
2022/12/24 01:56:19;;;;;;;49.42;19.13;;;;;;;4.93;100.00;100162.88;2063570;28;40718;-77
2022/12/24 01:57:29;;;;;;;38.55;16.77;;;;;;;4.90;100.00;100163.78;2064602;28;41180;-78
2022/12/24 01:58:35;;;;;;;42.25;18.33;;;;;;;4.93;100.00;100168.16;2073116;28;20049;-77
2022/12/24 01:59:45;;;;;;;44.42;18.65;;;;;;;4.91;100.00;100164.66;2072264;28;20038;-77
2022/12/24 02:00:47;;;;;;;52.60;18.30;;;;;;;4.92;100.00;100167.31;2063330;28;40584;-76
2022/12/24 02:01:50;;;;;;;45.60;17.60;;;;;;;4.92;100.00;100172.59;2064058;28;39715;-77
2022/12/24 02:02:53;;;;;;;50.20;17.70;;;;;;;4.93;100.00;100162.88;2071556;28;42898;-77
2022/12/24 02:03:55;;;;;;;51.22;18.00;;;;;;;4.93;100.00;100177.00;2063740;28;20181;-77
2022/12/24 02:05:08;;;;;;;44.40;17.83;;;;;;;4.91;100.00;100165.53;2064248;28;41679;-77
2022/12/24 02:06:16;;;;;;;44.63;18.50;;;;;;;4.92;100.00;100174.38;2071355;28;41915;-77
2022/12/24 02:07:18;;;;;;;49.92;16.58;;;;;;;4.94;100.00;100172.59;2063663;28;38702;-77
2022/12/24 02:08:22;;;;;;;48.30;17.83;;;;;;;4.94;100.00;100176.13;2056233;28;40837;-77
2022/12/24 02:09:24;;;;;;;49.47;17.98;;;;;;;4.94;100.00;100169.94;2064671;28;20082;-77
2022/12/24 02:10:26;;;;;;;54.67;18.55;;;;;;;4.94;100.00;100172.59;2070975;28;41550;-77
2022/12/24 02:11:29;;;;;;;46.17;18.73;;;;;;;4.94;100.00;100169.94;2070870;28;37873;-77
2022/12/24 02:12:35;;;;;;;47.53;18.00;;;;;;;4.95;100.00;100180.53;2071562;28;39446;-75
2022/12/24 02:13:38;;;;;;;45.67;18.40;;;;;;;4.94;100.00;100181.41;2063112;28;38583;-77
2022/12/24 02:14:39;;;;;;;50.65;18.33;;;;;;;4.93;100.00;100178.78;2055991;28;38473;-77
2022/12/24 02:16:11;;;;;;;52.08;18.63;;;;;;;4.93;100.00;100179.66;2063488;28;37028;-76
2022/12/24 02:17:36;;;;;;;50.90;17.52;;;;;;;4.94;100.00;100175.25;2072196;28;44180;-77
2022/12/24 02:19:02;;;;;;;41.88;17.33;;;;;;;4.93;100.00;100178.78;2077725;28;39046;-77
2022/12/24 02:20:25;;;;;;;46.75;17.05;;;;;;;4.94;100.00;100185.84;2080176;28;38361;-77
2022/12/24 02:21:57;;;;;;;49.15;16.98;;;;;;;4.93;100.00;100179.66;2080920;28;20930;-74
2022/12/24 02:23:59;;;;;;;51.40;18.15;;;;;;;4.93;100.00;100179.66;2080263;28;42295;-77
2022/12/24 02:25:30;;;;;;;44.08;16.75;;;;;;;4.93;100.00;100190.25;2041732;28;39543;-76
2022/12/24 02:27:01;;;;;;;;;;;;;;;4.92;100.00;100193.81;2081322;28;20117;-77
2022/12/24 02:28:49;;;;;;;42.58;15.55;;;;;;;4.93;100.00;100184.94;2080075;28;41861;-76
2022/12/24 02:30:08;;;;;;;40.47;16.00;;;;;;;4.93;100.00;100189.38;2080506;28;41538;-77
2022/12/24 02:31:21;;;;;;;48.10;17.05;;;;;;;4.94;100.00;100186.72;2071157;28;42563;-77
2022/12/24 02:32:55;;;;;;;44.95;15.75;;;;;;;4.94;100.00;100185.84;2074848;28;38723;-77
2022/12/24 02:34:26;;;;;;;36.42;15.77;;;;;;;4.93;100.00;100187.59;2071491;28;37276;-77
2022/12/24 02:35:56;;;;;;;45.03;16.50;;;;;;;4.94;100.00;100188.50;2071237;28;40365;-77
2022/12/24 02:37:14;;;;;;;44.97;16.73;;;;;;;4.95;100.00;100193.81;2070829;28;42068;-76
2022/12/24 02:38:27;;;;;;;43.03;15.73;;;;;;;4.95;100.00;100191.16;2076049;28;39214;-76
2022/12/24 02:40:02;;;;;;;45.47;17.33;;;;;;;4.97;100.00;100197.31;2079585;28;43145;-77
2022/12/24 02:41:14;;;;;;;39.78;16.13;;;;;;;4.97;100.00;100199.97;2071240;28;38403;-77
2022/12/24 02:42:22;;;;;;;42.58;16.98;;;;;;;4.97;100.00;100204.38;2073478;28;41773;-77
2022/12/24 02:43:31;;;;;;;49.60;16.67;;;;;;;4.98;100.00;100199.03;2071169;28;38507;-76
2022/12/24 02:44:48;;;;;;;42.15;16.17;;;;;;;4.96;100.00;100200.84;2064972;28;41057;-77
2022/12/24 02:45:58;;;;;;;45.67;17.80;;;;;;;4.97;100.00;100199.06;2066961;28;20138;-76
2022/12/24 02:47:03;;;;;;;47.05;17.40;;;;;;;4.97;100.00;100202.63;2074101;28;41145;-77
2022/12/24 02:48:06;;;;;;;49.22;17.58;;;;;;;4.96;100.00;100207.94;2071326;28;37955;-77
2022/12/24 02:49:12;;;;;;;49.47;16.70;;;;;;;4.96;100.00;100215.88;2063255;28;39891;-76
2022/12/24 02:50:16;;;;;;;53.45;17.20;;;;;;;4.96;100.00;100216.75;2064180;28;40026;-76
2022/12/24 02:51:23;;;;;;;45.90;17.63;;;;;;;4.96;100.00;100206.16;2064049;28;20043;-77
2022/12/24 02:52:38;;;;;;;41.28;17.23;;;;;;;4.98;100.00;100222.91;2072328;28;37887;-77
2022/12/24 02:53:42;;;;;;;42.25;16.48;;;;;;;4.98;100.00;100209.66;2080030;28;38114;-76
2022/12/24 02:54:44;;;;;;;46.55;17.48;;;;;;;5.00;100.00;100222.03;2080082;28;39442;-77
2022/12/24 02:56:17;;;;;;;49.03;17.60;;;;;;;5.00;100.00;100219.38;2070725;28;39471;-77
2022/12/24 02:58:24;;;;;;;48.58;18.10;;;;;;;5.00;100.00;100227.34;2075471;28;39950;-77
2022/12/24 03:00:06;;;;;;;42.40;16.58;;;;;;;4.99;100.00;100223.81;2046654;28;39048;-77
2022/12/24 03:01:36;;;;;;;51.42;16.52;;;;;;;5.00;100.00;100230.00;2062617;28;40469;-77
2022/12/24 03:03:08;;;;;;;50.85;17.75;;;;;;;5.00;100.00;100227.34;2054359;28;41856;-76
2022/12/24 03:04:42;;;;;;;42.80;16.23;;;;;;;5.01;100.00;100229.09;2066274;28;37975;-76
2022/12/24 03:05:58;;;;;;;47.63;16.98;;;;;;;5.00;100.00;100232.66;2071465;28;43295;-77
2022/12/24 03:07:15;;;;;;;51.17;18.02;;;;;;;5.00;100.00;100232.66;2072144;28;39136;-77
2022/12/24 03:08:20;;;;;;;47.75;17.30;;;;;;;4.99;100.00;100231.78;2070591;28;42043;-77
2022/12/24 03:09:44;;;;;;;49.78;17.55;;;;;;;5.01;100.00;100234.38;2071171;28;42107;-77
2022/12/24 03:10:55;;;;;;;43.90;16.55;;;;;;;5.01;100.00;100234.38;2071374;28;41803;-77
2022/12/24 03:12:03;;;;;;;43.08;17.73;;;;;;;5.00;100.00;100230.00;2067961;28;20054;-77
2022/12/24 03:13:13;;;;;;;54.53;19.08;;;;;;;5.01;100.00;100224.69;2057031;28;42750;-77
2022/12/24 03:14:16;;;;;;;50.47;18.08;;;;;;;5.02;100.00;100230.84;2057030;28;39330;-77
2022/12/24 03:15:21;;;;;;;55.63;18.25;;;;;;;5.02;100.00;100246.78;2063571;28;40468;-77
2022/12/24 03:16:27;;;;;;;49.05;17.73;;;;;;;5.02;100.00;100236.16;2070742;28;41935;-77
2022/12/24 03:17:30;;;;;;;49.28;16.25;;;;;;;5.02;100.00;100242.34;2070148;28;38397;-77
2022/12/24 03:18:32;;;;;;;50.88;17.70;;;;;;;5.03;100.00;100245.88;2067626;28;39836;-77
2022/12/24 03:19:35;;;;;;;46.58;17.10;;;;;;;5.03;100.00;100251.19;2063620;28;38461;-77
2022/12/24 03:20:52;;;;;;;46.97;17.67;;;;;;;5.03;100.00;100245.88;2054920;28;37832;-77
2022/12/24 03:21:57;;;;;;;43.33;17.08;;;;;;;5.05;100.00;100250.25;2058119;28;20047;-77
2022/12/24 03:22:59;;;;;;;51.22;17.73;;;;;;;5.06;100.00;100253.78;2058271;28;20047;-77
2022/12/24 03:24:02;;;;;;;49.47;17.45;;;;;;;5.06;100.00;100252.03;2055393;28;39978;-77
2022/12/24 03:25:06;;;;;;;48.78;17.80;;;;;;;5.08;100.00;100262.59;2056047;28;20821;-77
2022/12/24 03:26:13;;;;;;;48.20;18.08;;;;;;;5.08;100.00;100254.66;2055967;28;40936;-77
2022/12/24 03:27:15;;;;;;;49.92;18.98;;;;;;;5.09;100.00;100253.75;2056080;28;36829;-77
2022/12/24 03:28:23;;;;;;;41.20;17.65;;;;;;;5.11;100.00;100251.97;2063847;28;38918;-77
2022/12/24 03:29:24;;;;;;;43.97;16.50;;;;;;;5.11;100.00;100257.28;2071065;28;38654;-77
2022/12/24 03:30:26;;;;;;;43.80;17.88;;;;;;;5.11;100.00;100252.84;2069960;28;38625;-77
2022/12/24 03:31:46;;;;;;;45.95;17.83;;;;;;;5.11;100.00;100252.84;2064002;28;20440;-76
2022/12/24 03:32:48;;;;;;;40.83;17.13;;;;;;;5.12;100.00;100253.75;2071501;28;40036;-77
2022/12/24 03:33:50;;;;;;;46.88;16.35;;;;;;;5.14;100.00;100260.78;2071956;28;40258;-77
2022/12/24 03:34:52;;;;;;;40.03;15.50;;;;;;;5.15;100.00;100261.63;2070532;28;34865;-76
2022/12/24 03:35:54;;;;;;;52.38;17.17;;;;;;;5.16;100.00;100261.63;2070802;28;42616;-76
2022/12/24 03:36:56;;;;;;;41.08;16.95;;;;;;;5.16;100.00;100258.97;2071497;28;40541;-77
2022/12/24 03:38:00;;;;;;;42.60;17.38;;;;;;;5.15;100.00;100257.22;2071318;28;20969;-77
2022/12/24 03:39:02;;;;;;;44.67;17.08;;;;;;;5.16;100.00;100255.44;2071664;28;38574;-76
2022/12/24 03:40:06;;;;;;;41.58;18.23;;;;;;;5.16;100.00;100261.63;2070652;28;37859;-77
2022/12/24 03:41:08;;;;;;;52.35;17.25;;;;;;;5.16;100.00;100258.97;2063587;28;20043;-77
2022/12/24 03:42:12;;;;;;;43.58;14.98;;;;;;;5.18;100.00;100252.78;2062288;28;40515;-76
2022/12/24 03:43:14;;;;;;;50.45;16.13;;;;;;;5.19;100.00;100259.81;2071920;28;26237;-76
2022/12/24 03:44:15;;;;;;;42.40;17.25;;;;;;;5.19;100.00;100255.41;2070654;28;37695;-77
2022/12/24 03:45:18;;;;;;;44.95;17.95;;;;;;;5.20;100.00;100259.81;2062261;28;20082;-76
2022/12/24 03:46:20;;;;;;;45.33;17.70;;;;;;;5.19;100.00;100260.72;2063134;28;38230;-76
2022/12/24 03:47:21;;;;;;;38.47;16.10;;;;;;;5.21;100.00;100260.72;2071321;28;41547;-76
2022/12/24 03:48:23;;;;;;;50.10;17.27;;;;;;;5.21;100.00;100256.28;2063679;28;20038;-76
2022/12/24 03:49:32;;;;;;;39.03;16.08;;;;;;;5.22;100.00;100260.66;2063660;28;39750;-77
2022/12/24 03:50:35;;;;;;;43.00;16.52;;;;;;;5.24;100.00;100263.31;2071395;28;38678;-77
2022/12/24 03:51:37;;;;;;;40.08;15.35;;;;;;;5.25;100.00;100265.94;2069743;28;39247;-77
2022/12/24 03:52:38;;;;;;;46.85;16.05;;;;;;;5.25;100.00;100265.06;2071378;28;39292;-77
2022/12/24 03:53:40;;;;;;;53.28;15.98;;;;;;;5.26;100.00;100269.50;2070939;28;20039;-77
2022/12/24 03:54:42;;;;;;;44.90;16.65;;;;;;;5.27;100.00;100266.81;2071289;28;31732;-77
2022/12/24 03:55:45;;;;;;;47.47;16.95;;;;;;;5.26;100.00;100283.66;2070759;28;37560;-77
2022/12/24 03:56:47;;;;;;;43.15;16.67;;;;;;;5.26;100.00;100275.69;2072729;28;40962;-76
2022/12/24 03:57:51;;;;;;;43.38;16.85;;;;;;;5.28;100.00;100280.97;2066808;28;38032;-77
2022/12/24 03:58:53;;;;;;;42.70;14.82;;;;;;;5.27;100.00;100282.72;2054784;28;20109;-77
2022/12/24 03:59:55;;;;;;;42.83;16.88;;;;;;;5.28;100.00;100281.84;2054568;28;40930;-76
2022/12/24 04:00:56;;;;;;;39.60;14.10;;;;;;;5.29;100.00;100282.72;2070244;28;39953;-75
2022/12/24 04:01:58;;;;;;;53.33;16.85;;;;;;;5.30;100.00;100284.47;2071473;28;41387;-75
2022/12/24 04:03:00;;;;;;;46.00;18.15;;;;;;;5.28;100.00;100281.84;2069809;28;34688;-75
2022/12/24 04:04:02;;;;;;;48.58;17.13;;;;;;;5.29;100.00;100288.94;2070276;28;25411;-75
2022/12/24 04:05:07;;;;;;;46.42;17.25;;;;;;;5.30;100.00;100288.00;2071282;28;20260;-75
2022/12/24 04:06:16;;;;;;;63.65;22.13;;;;;;;5.30;100.00;100285.34;2070729;28;35652;-75
2022/12/24 04:07:20;;;;;;;55.33;20.88;;;;;;;5.31;100.00;100291.53;2071418;28;36133;-75
2022/12/24 04:08:22;;;;;;;65.72;21.27;;;;;;;5.32;100.00;100290.66;2070966;28;36078;-75
2022/12/24 04:09:24;;;;;;;58.47;19.35;;;;;;;5.32;100.00;100293.31;2070467;28;41390;-75
2022/12/24 04:10:28;;;;;;;53.55;19.13;;;;;;;5.32;100.00;100294.16;2070606;28;39622;-74
2022/12/24 04:11:31;;;;;;;52.60;20.35;;;;;;;5.33;100.00;100300.38;2069676;28;41600;-75
2022/12/24 04:12:32;;;;;;;51.95;19.67;;;;;;;5.32;100.00;100293.31;2071020;28;40819;-75
2022/12/24 04:13:34;;;;;;;60.38;18.27;;;;;;;5.31;100.00;100297.75;2060862;28;39983;-75
2022/12/24 04:14:36;;;;;;;63.45;20.13;;;;;;;5.34;100.00;100296.81;2053823;28;42243;-75
2022/12/24 04:15:37;;;;;;;59.47;20.58;;;;;;;5.34;100.00;100297.69;2061901;28;20051;-75
2022/12/24 04:16:39;;;;;;;62.92;20.50;;;;;;;5.34;100.00;100296.81;2071330;28;37876;-75
2022/12/24 04:17:41;;;;;;;65.65;21.23;;;;;;;5.35;100.00;100298.59;2070617;28;37594;-75
2022/12/24 04:18:43;;;;;;;60.35;22.40;;;;;;;5.37;100.00;100293.25;2071113;28;39545;-75
2022/12/24 04:19:46;;;;;;;64.97;21.58;;;;;;;5.38;100.00;100298.53;2074149;28;40419;-75
2022/12/24 04:20:48;;;;;;;66.05;22.60;;;;;;;5.38;100.00;100301.19;2076330;28;20828;-74
2022/12/24 04:21:50;;;;;;;69.22;22.52;;;;;;;5.40;100.00;100301.16;2062418;28;39140;-77
2022/12/24 04:22:52;;;;;;;64.13;21.13;;;;;;;5.41;100.00;100311.78;2062544;28;38381;-74
2022/12/24 04:23:54;;;;;;;79.32;23.38;;;;;;;5.43;100.00;100311.75;2071277;28;40934;-74
2022/12/24 04:24:58;;;;;;;65.22;23.20;;;;;;;5.43;100.00;100302.00;2071067;28;38130;-74
2022/12/24 04:26:05;;;;;;;68.45;22.05;;;;;;;5.43;100.00;100309.97;2071552;28;25361;-74
2022/12/24 04:27:07;;;;;;;87.55;22.75;;;;;;;5.45;100.00;100312.63;2065568;28;20983;-75
2022/12/24 04:28:09;;;;;;;71.43;23.83;;;;;;;5.46;100.00;100311.72;2063690;28;20817;-76
2022/12/24 04:29:11;;;;;;;74.28;24.17;;;;;;;5.46;100.00;100304.63;2071245;28;37120;-74
2022/12/24 04:30:13;;;;;;;80.78;24.20;;;;;;;5.46;100.00;100317.03;2070869;28;40427;-75
2022/12/24 04:31:16;;;;;;;83.28;23.10;;;;;;;5.48;100.00;100318.75;2070944;28;42812;-74
2022/12/24 04:32:18;;;;;;;88.72;25.35;;;;;;;5.48;100.00;100309.94;2071987;28;20034;-74
2022/12/24 04:33:20;;;;;;;88.70;24.42;;;;;;;5.49;100.00;100314.31;2071002;28;42064;-74
2022/12/24 04:34:23;;;;;;;86.07;25.40;;;;;;;5.50;100.00;100319.63;2071403;28;35740;-75
2022/12/24 04:35:25;;;;;;;83.75;24.75;;;;;;;5.50;100.00;100318.75;2064378;28;20194;-75
2022/12/24 04:36:27;;;;;;;92.43;26.25;;;;;;;5.51;100.00;100320.53;2055541;28;45058;-75
2022/12/24 04:37:28;;;;;;;92.80;25.38;;;;;;;5.52;100.00;100316.94;2056070;28;37365;-75
2022/12/24 04:38:32;;;;;;;89.35;26.20;;;;;;;5.52;100.00;100317.81;2063922;28;39978;-75
2022/12/24 04:39:38;;;;;;;94.32;25.63;;;;;;;5.54;100.00;100318.72;2072367;28;39388;-75
2022/12/24 04:40:39;;;;;;;88.35;25.50;;;;;;;5.54;100.00;100318.72;2073991;28;20050;-75
2022/12/24 04:41:43;;;;;;;95.25;25.50;;;;;;;5.55;100.00;100317.78;2072422;28;41012;-77
2022/12/24 04:42:45;;;;;;;99.05;26.02;;;;;;;5.55;100.00;100317.78;2072439;28;41012;-74
2022/12/24 04:43:47;;;;;;;104.72;26.35;;;;;;;5.56;100.00;100321.31;2064064;28;39293;-74
2022/12/24 04:44:48;;;;;;;95.68;27.73;;;;;;;5.59;100.00;100320.41;2063710;28;43205;-76
2022/12/24 04:45:50;;;;;;;91.45;27.02;;;;;;;5.59;100.00;100323.06;2064328;28;34983;-75
2022/12/24 04:46:52;;;;;;;96.25;26.45;;;;;;;5.60;100.00;100324.81;2072485;28;37471;-76
2022/12/24 04:47:53;;;;;;;100.07;27.38;;;;;;;5.62;100.00;100323.91;2072091;28;38393;-77
2022/12/24 04:48:56;;;;;;;107.65;27.73;;;;;;;5.63;100.00;100327.44;2063871;28;36235;-76
2022/12/24 04:49:58;;;;;;;101.82;28.25;;;;;;;5.64;100.00;100322.13;2063498;28;39896;-76
2022/12/24 04:51:06;;;;;;;109.95;27.55;;;;;;;5.64;100.00;100322.13;2073251;28;20042;-77
2022/12/24 04:52:10;;;;;;;105.13;27.95;;;;;;;5.66;100.00;100320.31;2072800;28;36812;-76
2022/12/24 04:53:15;;;;;;;109.38;26.45;;;;;;;5.67;100.00;100318.53;2072333;28;41394;-76
2022/12/24 04:54:19;;;;;;;121.40;27.80;;;;;;;5.68;100.00;100314.97;2072271;28;37253;-77
2022/12/24 04:55:21;;;;;;;109.53;29.35;;;;;;;5.69;100.00;100314.97;2072289;28;38434;-76
2022/12/24 04:56:31;;;;;;;107.50;28.33;;;;;;;5.73;100.00;100315.81;2072319;28;38351;-77
2022/12/24 04:57:34;;;;;;;107.88;29.48;;;;;;;5.77;100.00;100316.66;2072359;28;40619;-77
2022/12/24 04:58:36;;;;;;;102.90;28.85;;;;;;;5.78;100.00;100310.41;2071916;28;41865;-77
2022/12/24 04:59:37;;;;;;;104.85;27.98;;;;;;;5.79;100.00;100320.16;2072679;28;20049;-76
2022/12/24 05:00:40;;;;;;;130.95;30.25;;;;;;;5.80;100.00;100316.63;2071894;28;32089;-76
2022/12/24 05:01:43;;;;;;;117.30;29.92;;;;;;;5.84;100.00;100313.00;2073416;28;20801;-76
2022/12/24 05:02:45;;;;;;;112.80;29.95;;;;;;;5.85;100.00;100320.06;2072293;28;38308;-74
2022/12/24 05:03:47;;;;;;;112.53;28.50;;;;;;;5.86;100.00;100325.34;2063590;28;40935;-76
2022/12/24 05:04:49;;;;;;;125.57;28.58;;;;;;;5.91;100.00;100322.66;2064414;28;20035;-77
2022/12/24 05:05:50;;;;;;;121.03;28.42;;;;;;;5.94;100.00;100330.59;2072360;28;39868;-76
2022/12/24 05:06:57;;;;;;;118.93;28.23;;;;;;;5.99;100.00;100330.53;2071848;28;40560;-76